createdAt,value
2023-07-09T00:02:14.212Z,8.05
2023-07-09T00:04:42.485Z,8.30
2023-07-09T00:07:35.397Z,7.60
2023-07-09T00:10:03.685Z,8.57
2023-07-09T00:12:31.254Z,8.60
2023-07-09T00:14:59.527Z,8.60
2023-07-09T00:17:37.229Z,8.55
2023-07-09T00:20:16.127Z,8.13
2023-07-09T00:22:49.295Z,7.82
2023-07-09T00:25:18.186Z,7.50
2023-07-09T00:27:49.453Z,7.07
2023-07-09T00:30:23.429Z,6.28
2023-07-09T00:32:55.598Z,5.97
2023-07-09T00:35:24.839Z,5.88
2023-07-09T00:37:52.838Z,6.10
2023-07-09T00:40:24.144Z,6.82
2023-07-09T00:42:54.635Z,6.07
2023-07-09T00:45:28.703Z,6.95
2023-07-09T00:48:07.927Z,6.55
2023-07-09T00:50:43.602Z,6.82
2023-07-09T00:53:31.666Z,6.78
2023-07-09T00:56:06.590Z,6.32
2023-07-09T00:58:36.908Z,6.97
2023-07-09T01:01:13.269Z,6.25
2023-07-09T01:03:46.266Z,6.43
2023-07-09T01:06:23.709Z,7.97
2023-07-09T01:08:54.675Z,7.05
2023-07-09T01:11:24.446Z,7.80
2023-07-09T01:14:04.289Z,7.50
2023-07-09T01:16:35.242Z,7.97
2023-07-09T01:19:05.421Z,7.72
2023-07-09T01:21:34.954Z,7.55
2023-07-09T01:24:15.457Z,8.32
2023-07-09T01:26:45.019Z,8.20
2023-07-09T01:29:13.583Z,8.63
2023-07-09T01:31:43.929Z,7.57
2023-07-09T01:34:11.540Z,7.75
2023-07-09T01:36:41.225Z,7.63
2023-07-09T01:39:09.694Z,7.63
2023-07-09T01:41:37.331Z,8.77
2023-07-09T01:44:08.876Z,8.27
2023-07-09T01:46:36.652Z,8.40
2023-07-09T01:49:04.229Z,8.40
2023-07-09T01:51:33.486Z,8.10
2023-07-09T01:54:01.165Z,7.03
2023-07-09T01:56:30.788Z,9.18
2023-07-09T01:59:02.492Z,8.50
2023-07-09T02:01:30.884Z,8.45
2023-07-09T02:03:58.394Z,8.15
2023-07-09T02:06:28.634Z,8.45
2023-07-09T02:08:56.699Z,8.10
2023-07-09T02:11:24.328Z,7.47
2023-07-09T02:13:53.989Z,7.95
2023-07-09T02:16:23.321Z,8.13
2023-07-09T02:18:52.632Z,7.43
2023-07-09T02:21:21.547Z,7.78
2023-07-09T02:23:49.006Z,8.25
2023-07-09T02:26:16.665Z,8.63
2023-07-09T02:28:43.940Z,7.60
2023-07-09T02:31:11.682Z,7.75
2023-07-09T02:33:39.263Z,7.85
2023-07-09T02:36:07.024Z,8.25
2023-07-09T02:38:35.318Z,7.03
2023-07-09T02:41:03.150Z,8.85
2023-07-09T02:43:30.590Z,7.80
2023-07-09T02:45:58.481Z,7.65
2023-07-09T02:48:26.042Z,7.25
2023-07-09T02:50:53.678Z,7.75
2023-07-09T02:53:21.213Z,15.88
2023-07-09T02:55:48.838Z,17.55
2023-07-09T02:58:16.041Z,9.55
2023-07-09T03:00:43.993Z,9.52
2023-07-09T03:03:11.958Z,8.43
2023-07-09T03:05:39.604Z,7.63
2023-07-09T03:08:07.746Z,8.63
2023-07-09T03:10:35.363Z,7.85
2023-07-09T03:13:02.776Z,9.13
2023-07-09T03:15:32.484Z,7.93
2023-07-09T03:18:00.003Z,7.40
2023-07-09T03:20:28.176Z,8.48
2023-07-09T03:22:55.565Z,7.88
2023-07-09T03:25:23.182Z,7.50
2023-07-09T03:27:50.590Z,6.95
2023-07-09T03:30:18.225Z,8.20
2023-07-09T03:32:45.737Z,8.48
2023-07-09T03:35:13.346Z,8.45
2023-07-09T03:37:40.676Z,7.93
2023-07-09T03:40:11.834Z,8.15
2023-07-09T03:42:39.950Z,8.50
2023-07-09T03:45:08.179Z,8.45
2023-07-09T03:47:36.593Z,8.68
2023-07-09T03:50:07.245Z,8.07
2023-07-09T03:52:34.547Z,8.90
2023-07-09T03:55:05.234Z,7.57
2023-07-09T03:57:34.733Z,8.43
2023-07-09T04:00:05.782Z,8.32
2023-07-09T04:02:45.010Z,8.55
2023-07-09T04:05:13.067Z,7.95
2023-07-09T04:07:41.510Z,8.18
2023-07-09T04:10:09.721Z,9.05
2023-07-09T04:12:37.813Z,7.93
2023-07-09T04:15:06.973Z,7.60
2023-07-09T04:17:34.303Z,8.25
2023-07-09T04:20:07.103Z,8.20
2023-07-09T04:22:36.510Z,8.25
2023-07-09T04:25:08.338Z,8.23
2023-07-09T04:27:35.959Z,7.90
2023-07-09T04:30:07.141Z,7.72
2023-07-09T04:32:35.159Z,8.30
2023-07-09T04:35:03.618Z,7.72
2023-07-09T04:37:30.919Z,7.78
2023-07-09T04:40:00.279Z,8.82
2023-07-09T04:42:27.883Z,8.48
2023-07-09T04:44:56.007Z,8.32
2023-07-09T04:47:23.695Z,10.02
2023-07-09T04:49:51.645Z,8.55
2023-07-09T04:52:19.008Z,8.77
2023-07-09T04:54:51.576Z,8.52
2023-07-09T04:57:19.104Z,8.25
2023-07-09T04:59:51.089Z,8.30
2023-07-09T05:02:24.911Z,8.88
2023-07-09T05:07:20.504Z,7.65
2023-07-09T05:09:49.707Z,8.48
2023-07-09T05:12:18.630Z,7.63
2023-07-09T05:14:46.234Z,7.88
2023-07-09T05:17:13.764Z,8.13
2023-07-09T05:19:41.470Z,7.97
2023-07-09T05:22:08.929Z,7.95
2023-07-09T05:24:36.787Z,7.20
2023-07-09T05:27:05.708Z,7.90
2023-07-09T05:29:34.032Z,8.10
2023-07-09T05:32:03.002Z,6.88
2023-07-09T05:34:30.913Z,7.22
2023-07-09T05:37:01.527Z,7.40
2023-07-09T05:39:30.496Z,8.35
2023-07-09T05:41:57.870Z,8.15
2023-07-09T05:44:31.560Z,7.55
2023-07-09T05:46:59.327Z,8.13
2023-07-09T05:49:27.295Z,8.32
2023-07-09T05:51:57.030Z,7.25
2023-07-09T05:54:25.665Z,5.93
2023-07-09T05:56:55.964Z,6.88
2023-07-09T05:59:23.714Z,5.80
2023-07-09T06:01:53.714Z,5.30
2023-07-09T06:04:21.770Z,5.22
2023-07-09T06:06:48.988Z,5.22
2023-07-09T06:09:17.179Z,5.88
2023-07-09T06:11:46.288Z,4.95
2023-07-09T06:14:14.068Z,5.63
2023-07-09T06:16:42.496Z,4.25
2023-07-09T06:19:11.150Z,4.43
2023-07-09T06:21:43.326Z,5.47
2023-07-09T06:24:11.470Z,4.40
2023-07-09T06:26:38.998Z,4.03
2023-07-09T06:29:07.131Z,5.47
2023-07-09T06:31:36.644Z,4.40
2023-07-09T06:34:05.415Z,4.43
2023-07-09T06:36:34.618Z,4.63
2023-07-09T06:39:02.360Z,4.28
2023-07-09T06:41:30.362Z,4.88
2023-07-09T06:43:58.116Z,4.32
2023-07-09T06:46:25.627Z,4.32
2023-07-09T06:48:53.530Z,4.22
2023-07-09T06:51:23.011Z,4.72
2023-07-09T06:53:52.481Z,4.20
2023-07-09T06:56:19.699Z,4.25
2023-07-09T06:58:47.947Z,4.30
2023-07-09T07:01:15.594Z,5.75
2023-07-09T07:03:43.344Z,6.63
2023-07-09T07:06:10.674Z,4.32
2023-07-09T07:08:39.850Z,4.88
2023-07-09T07:11:08.154Z,4.60
2023-07-09T07:13:39.371Z,6.55
2023-07-09T07:16:12.913Z,4.80
2023-07-09T07:18:42.757Z,5.38
2023-07-09T07:21:10.110Z,5.13
2023-07-09T07:23:39.576Z,5.70
2023-07-09T07:26:07.300Z,5.00
2023-07-09T07:28:38.405Z,7.18
2023-07-09T07:31:11.897Z,5.28
2023-07-09T07:33:42.413Z,5.00
2023-07-09T07:38:41.949Z,5.53
2023-07-09T07:41:11.222Z,5.95
2023-07-09T07:43:40.126Z,4.68
2023-07-09T07:46:09.376Z,5.88
2023-07-09T07:48:37.290Z,4.88
2023-07-09T07:51:06.916Z,5.10
2023-07-09T07:53:38.785Z,4.82
2023-07-09T07:56:08.522Z,4.93
2023-07-09T07:58:36.229Z,4.93
2023-07-09T08:01:04.141Z,4.70
2023-07-09T08:03:34.506Z,4.53
2023-07-09T08:06:02.877Z,4.43
2023-07-09T08:08:32.105Z,4.50
2023-07-09T08:11:06.568Z,5.15
2023-07-09T08:13:38.971Z,4.15
2023-07-09T08:16:07.698Z,5.57
2023-07-09T08:18:36.169Z,19.40
2023-07-09T08:21:05.270Z,4.85
2023-07-09T08:23:33.292Z,4.07
2023-07-09T08:26:04.437Z,4.47
2023-07-09T08:28:35.371Z,5.65
2023-07-09T08:31:03.885Z,3.92
2023-07-09T08:33:35.041Z,4.20
2023-07-09T08:36:04.870Z,4.10
2023-07-09T08:38:35.372Z,4.40
2023-07-09T08:41:10.128Z,3.67
2023-07-09T08:44:07.294Z,4.47
2023-07-09T08:47:14.922Z,3.60
2023-07-09T08:49:49.349Z,3.45
2023-07-09T08:52:26.757Z,3.95
2023-07-09T08:54:57.126Z,3.08
2023-07-09T08:57:28.967Z,3.30
2023-07-09T09:00:26.661Z,3.00
2023-07-09T09:03:16.569Z,3.10
2023-07-09T09:05:49.690Z,2.92
2023-07-09T09:08:41.255Z,3.20
2023-07-09T09:11:34.719Z,2.95
2023-07-09T09:14:06.580Z,3.30
2023-07-09T09:16:40.259Z,6.30
2023-07-09T09:19:26.689Z,3.67
2023-07-09T09:22:09.795Z,2.30
2023-07-09T09:24:46.421Z,3.75
2023-07-09T09:27:14.033Z,2.38
2023-07-09T09:29:42.261Z,2.70
2023-07-09T09:32:30.470Z,2.40
2023-07-09T09:34:58.562Z,3.30
2023-07-09T09:37:30.384Z,2.58
2023-07-09T09:40:13.621Z,2.00
2023-07-09T09:42:45.240Z,2.75
2023-07-09T09:45:20.763Z,2.40
2023-07-09T09:47:50.240Z,2.72
2023-07-09T09:50:19.952Z,2.17
2023-07-09T09:52:49.806Z,2.88
2023-07-09T09:55:30.885Z,2.72
2023-07-09T09:57:58.509Z,2.05
2023-07-09T10:00:34.498Z,2.83
2023-07-09T10:03:05.326Z,2.50
2023-07-09T10:05:49.976Z,2.42
2023-07-09T10:08:44.338Z,2.35
2023-07-09T10:11:22.907Z,2.17
2023-07-09T10:13:56.453Z,3.22
2023-07-09T10:16:37.668Z,2.50
2023-07-09T10:19:44.452Z,2.55
2023-07-09T10:22:26.732Z,2.25
2023-07-09T10:24:55.921Z,2.55
2023-07-09T10:27:37.662Z,2.83
2023-07-09T10:30:32.472Z,2.50
2023-07-09T10:33:18.659Z,2.38
2023-07-09T10:35:57.114Z,2.97
2023-07-09T10:38:40.327Z,2.88
2023-07-09T10:44:22.095Z,3.25
2023-07-09T10:47:00.637Z,3.08
2023-07-09T10:49:39.648Z,2.85
2023-07-09T10:52:14.783Z,3.35
2023-07-09T10:54:59.128Z,3.13
2023-07-09T10:57:45.605Z,3.00
2023-07-09T11:00:19.141Z,2.53
2023-07-09T11:02:59.825Z,2.53
2023-07-09T11:05:27.579Z,2.83
2023-07-09T11:08:10.052Z,2.50
2023-07-09T11:10:52.756Z,3.00
2023-07-09T11:13:42.587Z,3.00
2023-07-09T11:16:27.229Z,3.30
2023-07-09T11:19:08.053Z,3.00
2023-07-09T11:22:00.121Z,3.42
2023-07-09T11:25:05.920Z,3.13
2023-07-09T11:30:18.233Z,3.65
2023-07-09T11:33:18.608Z,2.83
2023-07-09T11:35:56.080Z,3.72
2023-07-09T11:38:25.974Z,2.72
2023-07-09T11:40:56.689Z,2.47
2023-07-09T11:43:35.438Z,2.78
2023-07-09T11:46:16.262Z,2.40
2023-07-09T11:48:45.206Z,3.38
2023-07-09T11:51:19.523Z,3.00
2023-07-09T11:53:50.872Z,2.80
2023-07-09T11:56:25.270Z,2.67
2023-07-09T11:58:56.964Z,2.85
2023-07-09T12:01:33.206Z,2.70
2023-07-09T12:04:01.353Z,2.85
2023-07-09T12:06:33.117Z,2.72
2023-07-09T12:09:01.749Z,3.95
2023-07-09T12:11:35.930Z,3.53
2023-07-09T12:14:12.927Z,3.65
2023-07-09T12:16:49.808Z,3.30
2023-07-09T12:19:23.876Z,2.67
2023-07-09T12:21:58.148Z,3.05
2023-07-09T12:24:28.553Z,3.40
2023-07-09T12:27:00.038Z,4.47
2023-07-09T12:29:32.778Z,3.70
2023-07-09T12:32:11.473Z,2.95
2023-07-09T12:34:39.820Z,3.05
2023-07-09T12:37:15.136Z,3.10
2023-07-09T12:39:42.615Z,2.65
2023-07-09T12:42:33.135Z,2.83
2023-07-09T12:45:01.369Z,2.30
2023-07-09T12:47:29.455Z,2.90
2023-07-09T12:50:40.469Z,2.53
2023-07-09T12:53:22.532Z,2.58
2023-07-09T12:55:52.242Z,2.60
2023-07-09T12:58:30.817Z,3.60
2023-07-09T13:01:06.185Z,3.10
2023-07-09T13:03:36.343Z,3.55
2023-07-09T13:06:10.132Z,2.22
2023-07-09T13:08:45.526Z,3.20
2023-07-09T13:11:22.746Z,3.33
2023-07-09T13:13:59.546Z,2.40
2023-07-09T13:16:29.811Z,4.45
2023-07-09T13:18:58.502Z,3.00
2023-07-09T13:21:26.399Z,2.72
2023-07-09T13:23:55.226Z,3.10
2023-07-09T13:26:22.913Z,2.90
2023-07-09T13:28:52.408Z,2.88
2023-07-09T13:31:22.221Z,2.70
2023-07-09T13:33:59.151Z,3.00
2023-07-09T13:36:29.589Z,2.97
2023-07-09T13:38:57.353Z,4.68
2023-07-09T13:41:27.019Z,4.32
2023-07-09T13:43:58.063Z,3.20
2023-07-09T13:46:27.518Z,4.82
2023-07-09T13:48:54.879Z,3.42
2023-07-09T13:51:24.956Z,3.63
2023-07-09T13:54:00.530Z,3.03
2023-07-09T13:56:28.501Z,2.97
2023-07-09T13:58:56.094Z,3.30
2023-07-09T14:01:25.096Z,3.15
2023-07-09T14:03:59.902Z,3.50
2023-07-09T14:06:28.133Z,2.70
2023-07-09T14:08:57.323Z,3.15
2023-07-09T14:11:26.744Z,2.60
2023-07-09T14:13:55.129Z,3.65
2023-07-09T14:16:23.324Z,3.03
2023-07-09T14:18:52.076Z,2.55
2023-07-09T14:21:26.722Z,3.47
2023-07-09T14:23:55.419Z,3.17
2023-07-09T14:26:23.475Z,2.53
2023-07-09T14:28:53.531Z,2.60
2023-07-09T14:31:26.869Z,3.38
2023-07-09T14:33:56.819Z,2.83
2023-07-09T14:36:24.208Z,3.13
2023-07-09T14:38:52.448Z,3.10
2023-07-09T14:41:25.842Z,2.50
2023-07-09T14:43:57.563Z,3.13
2023-07-09T14:46:26.695Z,4.60
2023-07-09T14:48:54.247Z,2.75
2023-07-09T14:51:21.699Z,2.88
2023-07-09T14:53:49.666Z,2.55
2023-07-09T14:56:16.954Z,3.25
2023-07-09T14:58:44.657Z,3.22
2023-07-09T15:01:16.438Z,3.05
2023-07-09T15:03:45.587Z,2.72
2023-07-09T15:06:15.606Z,2.90
2023-07-09T15:08:49.866Z,2.45
2023-07-09T15:11:18.733Z,3.38
2023-07-09T15:13:48.158Z,3.00
2023-07-09T15:16:15.553Z,2.60
2023-07-09T15:18:43.277Z,2.53
2023-07-09T15:21:29.717Z,3.60
2023-07-09T15:24:23.348Z,2.38
2023-07-09T15:26:58.171Z,2.97
2023-07-09T15:29:26.594Z,3.00
2023-07-09T15:31:56.688Z,2.80
2023-07-09T15:34:25.558Z,3.50
2023-07-09T15:36:53.761Z,4.10
2023-07-09T15:39:21.910Z,3.28
2023-07-09T15:41:50.169Z,2.65
2023-07-09T15:44:21.106Z,3.25
2023-07-09T15:46:56.718Z,2.97
2023-07-09T15:49:24.636Z,3.60
2023-07-09T15:51:52.436Z,3.00
2023-07-09T15:54:23.046Z,3.33
2023-07-09T15:56:52.907Z,2.80
2023-07-09T15:59:26.785Z,2.83
2023-07-09T16:01:54.979Z,2.92
2023-07-09T16:04:24.946Z,3.13
2023-07-09T16:06:54.896Z,3.30
2023-07-09T16:09:22.523Z,3.28
2023-07-09T16:11:53.176Z,2.53
2023-07-09T16:14:37.284Z,2.90
2023-07-09T16:17:10.595Z,2.47
2023-07-09T16:19:38.166Z,2.85
2023-07-09T16:22:08.759Z,4.07
2023-07-09T16:24:41.295Z,3.35
2023-07-09T16:27:16.146Z,2.95
2023-07-09T16:29:45.233Z,2.90
2023-07-09T16:32:16.503Z,3.28
2023-07-09T16:34:44.032Z,3.70
2023-07-09T16:37:21.376Z,3.35
2023-07-09T16:39:49.913Z,3.28
2023-07-09T16:42:17.941Z,3.67
2023-07-09T16:44:49.252Z,4.15
2023-07-09T16:47:19.976Z,3.28
2023-07-09T16:49:48.394Z,3.00
2023-07-09T16:52:18.811Z,3.42
2023-07-09T16:54:50.517Z,3.67
2023-07-09T16:57:22.089Z,3.67
2023-07-09T16:59:51.438Z,2.65
2023-07-09T17:02:31.893Z,3.65
2023-07-09T17:05:08.020Z,3.75
2023-07-09T17:07:36.185Z,3.78
2023-07-09T17:10:05.601Z,4.07
2023-07-09T17:12:33.995Z,3.88
2023-07-09T17:15:08.457Z,4.10
2023-07-09T17:17:36.096Z,4.28
2023-07-09T17:20:06.341Z,4.43
2023-07-09T17:22:36.739Z,3.53
2023-07-09T17:25:35.790Z,3.25
2023-07-09T17:28:22.088Z,4.18
2023-07-09T17:30:51.787Z,3.72
2023-07-09T17:33:20.330Z,3.90
2023-07-09T17:35:50.953Z,3.67
2023-07-09T17:38:33.598Z,3.75
2023-07-09T17:41:01.659Z,3.55
2023-07-09T17:43:32.881Z,4.22
2023-07-09T17:46:00.355Z,4.45
2023-07-09T17:48:31.375Z,3.85
2023-07-09T17:50:59.435Z,3.65
2023-07-09T17:53:30.015Z,3.85
2023-07-09T17:55:58.150Z,3.85
2023-07-09T17:58:38.688Z,4.63
2023-07-09T18:01:08.412Z,4.05
2023-07-09T18:03:36.740Z,3.60
2023-07-09T18:06:05.085Z,4.05
2023-07-09T18:08:34.908Z,3.58
2023-07-09T18:11:02.466Z,4.07
2023-07-09T18:13:31.535Z,4.30
2023-07-09T18:15:59.731Z,5.50
2023-07-09T18:18:28.309Z,5.20
2023-07-09T18:20:55.988Z,4.05
2023-07-09T18:23:26.720Z,4.07
2023-07-09T18:25:54.544Z,4.70
2023-07-09T18:28:36.373Z,5.28
2023-07-09T18:31:16.273Z,6.40
2023-07-09T18:33:46.311Z,5.93
2023-07-09T18:36:13.912Z,5.28
2023-07-09T18:38:42.854Z,5.82
2023-07-09T18:41:17.593Z,7.50
2023-07-09T18:43:50.631Z,5.50
2023-07-09T18:46:18.405Z,6.72
2023-07-09T18:48:47.015Z,6.32
2023-07-09T18:51:15.120Z,5.78
2023-07-09T18:53:44.474Z,5.20
2023-07-09T18:56:13.613Z,6.15
2023-07-09T18:58:42.505Z,7.05
2023-07-09T19:01:26.190Z,9.40
2023-07-09T19:03:57.671Z,8.73
2023-07-09T19:06:27.848Z,8.45
2023-07-09T19:08:55.673Z,8.38
2023-07-09T19:11:23.570Z,6.85
2023-07-09T19:13:51.196Z,11.50
2023-07-09T19:16:28.797Z,13.20
2023-07-09T19:18:57.312Z,13.27
2023-07-09T19:21:24.899Z,11.82
2023-07-09T19:23:53.774Z,10.55
2023-07-09T19:26:25.448Z,10.63
2023-07-09T19:28:53.549Z,6.82
2023-07-09T19:31:20.942Z,10.20
2023-07-09T19:33:51.657Z,8.77
2023-07-09T19:36:27.731Z,6.75
2023-07-09T19:38:58.220Z,6.25
2023-07-09T19:41:28.034Z,7.65
2023-07-09T19:43:59.801Z,8.88
2023-07-09T19:46:29.770Z,7.82
2023-07-09T19:48:57.920Z,7.35
2023-07-09T19:51:26.773Z,6.30
2023-07-09T19:54:00.565Z,6.45
2023-07-09T19:56:28.016Z,5.90
2023-07-09T19:58:58.374Z,7.78
2023-07-09T20:01:27.088Z,6.82
2023-07-09T20:03:59.217Z,6.78
2023-07-09T20:06:28.189Z,6.03
2023-07-09T20:08:58.056Z,5.97
2023-07-09T20:11:28.648Z,5.38
2023-07-09T20:13:56.511Z,5.90
2023-07-09T20:16:29.975Z,6.13
2023-07-09T20:19:00.420Z,7.25
2023-07-09T20:21:28.624Z,5.43
2023-07-09T20:23:57.168Z,5.20
2023-07-09T20:26:24.539Z,5.88
2023-07-09T20:28:54.210Z,5.35
2023-07-09T20:31:26.558Z,5.18
2023-07-09T20:34:02.350Z,5.75
2023-07-09T20:36:30.058Z,5.00
2023-07-09T20:38:59.328Z,5.30
2023-07-09T20:41:29.391Z,5.00
2023-07-09T20:43:57.858Z,4.47
2023-07-09T20:46:25.961Z,5.60
2023-07-09T20:48:53.645Z,6.70
2023-07-09T20:51:20.836Z,4.80
2023-07-09T20:53:48.695Z,5.15
2023-07-09T20:56:16.144Z,4.70
2023-07-09T20:58:44.007Z,5.72
2023-07-09T21:01:11.726Z,5.10
2023-07-09T21:03:42.278Z,5.80
2023-07-09T21:06:18.125Z,5.80
2023-07-09T21:08:45.855Z,5.28
2023-07-09T21:11:13.069Z,4.78
2023-07-09T21:13:40.805Z,5.25
2023-07-09T21:16:20.029Z,4.60
2023-07-09T21:18:47.960Z,4.90
2023-07-09T21:21:16.141Z,5.43
2023-07-09T21:23:43.776Z,5.28
2023-07-09T21:26:17.040Z,4.03
2023-07-09T21:28:44.653Z,4.60
2023-07-09T21:31:20.292Z,4.53
2023-07-09T21:33:50.450Z,5.05
2023-07-09T21:36:17.830Z,4.85
2023-07-09T21:38:45.491Z,5.30
2023-07-09T21:41:12.809Z,5.10
2023-07-09T21:43:42.715Z,5.15
2023-07-09T21:46:25.695Z,4.50
2023-07-09T21:48:53.368Z,5.00
2023-07-09T21:51:21.070Z,4.95
2023-07-09T21:54:11.430Z,5.38
2023-07-09T21:56:36.878Z,5.05
2023-07-09T21:59:04.500Z,5.32
2023-07-09T22:01:32.354Z,4.97
2023-07-09T22:04:00.981Z,4.65
2023-07-09T22:06:28.483Z,5.72
2023-07-09T22:08:56.202Z,5.43
2023-07-09T22:11:28.232Z,5.18
2023-07-09T22:13:57.318Z,4.63
2023-07-09T22:16:27.582Z,5.30
2023-07-09T22:18:56.065Z,5.53
2023-07-09T22:21:23.404Z,5.03
2023-07-09T22:23:55.571Z,6.00
2023-07-09T22:26:23.033Z,5.03
2023-07-09T22:28:51.749Z,5.40
2023-07-09T22:31:19.135Z,5.15
2023-07-09T22:33:47.408Z,5.15
2023-07-09T22:36:14.715Z,4.30
2023-07-09T22:38:44.480Z,5.25
2023-07-09T22:41:12.766Z,7.82
2023-07-09T22:43:40.426Z,4.65
2023-07-09T22:46:20.836Z,4.55
2023-07-09T22:48:48.648Z,4.57
2023-07-09T22:51:17.961Z,5.10
2023-07-09T22:53:45.559Z,5.38
2023-07-09T22:56:13.259Z,5.55
2023-07-09T22:58:43.954Z,5.32
2023-07-09T23:01:21.723Z,5.25
2023-07-09T23:03:50.680Z,5.60
2023-07-09T23:06:23.216Z,5.32
2023-07-09T23:08:58.010Z,5.57
2023-07-09T23:11:34.069Z,4.93
2023-07-09T23:14:03.950Z,4.57
2023-07-09T23:16:32.732Z,4.05
2023-07-09T23:19:17.207Z,4.75
2023-07-09T23:21:44.537Z,4.47
2023-07-09T23:24:12.235Z,4.65
2023-07-09T23:26:47.819Z,4.22
2023-07-09T23:29:17.129Z,4.32
2023-07-09T23:31:47.441Z,4.57
2023-07-09T23:34:18.192Z,4.57
2023-07-09T23:36:45.880Z,4.50
2023-07-09T23:39:14.363Z,4.55
2023-07-09T23:41:46.469Z,4.80
2023-07-09T23:44:23.552Z,4.13
2023-07-09T23:46:53.244Z,3.60
2023-07-09T23:49:25.533Z,4.35
2023-07-09T23:51:53.506Z,5.03
2023-07-09T23:54:21.061Z,4.10
2023-07-09T23:56:51.255Z,3.75
2023-07-09T23:59:25.968Z,4.32
